Seacliff, California
Current Conditions -  °F | °C
As of 4:53 PM on Friday 24 Oct 2014 (Local Time) from KWVI Reporting Station
Overcast Overcast  
Wind Chill: 65°   Ceiling: 1700
Heat Index: 65°   Visibility: 10mi
Dew Point: 57°   Wind: 8mph
Humidity: 75%   Direction: 220°SW
Pressure: 29.94"   Gusts: NA
Location:  37.0137°N, 121.877°W
Report Text: KWVI 242353Z AUTO 22007KT 10SM OVC017 18/14 A2994 RMK AO2 SLP139 T01830139 10222 20183 50000
Loading
Personal Weather Stations






























Interactive Weather Map
Tropical Storm Tracking
New forecast layout! Learn more

10-Day Weather Forecast

Advertisements
Track Severe Weather on mobile